Abeid Amani Karume International Airport

Airport
ICAO code: 
HTZA
IATA Code: 
ZNZ
Summary
ICAO Region: 
AFI
Territory: 
Location: 
Zanzibar City, Unguja Airport
Serving: 
Zanzibar
Elevation: 
54 ft
Coordinates: 
Aerial View: 
6° 13' 19.992" S, 39° 13' 30" E
Metar
Observation
HTZA 070600Z 18005KT 9999 SCT018 FEW019CB BKN080 28/25 Q1015 NOSIG
Station
Zanzibar / Kisauni
Date/Time
2021-12-07 06:00:00
Wind direction
180°
Wind speed
05 kts
Lowest cloud amount
scattered clouds
Temperature
28°C
Dew point
25°C
Humidity
83%
QNH
1015 hPa
Weather condition
n/a

Abeid Amani Karume International Airport is the main airport in the Zanzibar Archipelago located on Unguja Island. It was previously known as Kisauni Airport and Zanzibar International Airport.

Climatology

Tropical rainforest climate (Köppen climate classification Af)

Runways

Designator Length Width Surface Rops
18/36 2462 45 ASP Yes/Yes
Airport map: 
Aerial View: 

SKYbrary Partners:

Safety knowledge contributed by: